createdAt,value
2022-10-01T00:01:04.841Z,52.35
2022-10-01T00:03:39.895Z,59.28
2022-10-01T00:06:16.765Z,55.30
2022-10-01T00:08:51.732Z,58.42
2022-10-01T00:11:27.259Z,58.80
2022-10-01T00:14:01.981Z,62.53
2022-10-01T00:16:36.408Z,64.05
2022-10-01T00:19:15.155Z,62.38
2022-10-01T00:21:48.729Z,67.43
2022-10-01T00:24:22.272Z,60.75
2022-10-01T00:26:55.829Z,56.00
2022-10-01T00:29:29.328Z,65.18
2022-10-01T00:32:03.230Z,55.65
2022-10-01T00:34:38.148Z,52.63
2022-10-01T00:37:11.631Z,58.63
2022-10-01T00:39:45.624Z,62.30
2022-10-01T00:42:22.328Z,57.10
2022-10-01T00:44:56.650Z,52.20
2022-10-01T00:47:34.800Z,53.92
2022-10-01T00:50:17.470Z,60.33
2022-10-01T00:52:55.075Z,56.40
2022-10-01T00:55:34.138Z,53.63
2022-10-01T00:58:10.034Z,56.95
2022-10-01T01:00:44.635Z,55.63
2022-10-01T01:03:18.523Z,55.70
2022-10-01T01:05:53.509Z,55.70
2022-10-01T01:08:27.157Z,56.63
2022-10-01T01:11:09.345Z,53.97
2022-10-01T01:13:54.390Z,54.20
2022-10-01T01:16:34.077Z,55.15
2022-10-01T01:19:22.673Z,57.40
2022-10-01T01:22:02.210Z,53.50
2022-10-01T01:24:50.393Z,54.53
2022-10-01T01:27:36.327Z,56.95
2022-10-01T01:30:13.713Z,58.47
2022-10-01T01:32:54.269Z,57.72
2022-10-01T01:35:32.439Z,55.90
2022-10-01T01:38:10.596Z,54.67
2022-10-01T01:40:51.621Z,55.10
2022-10-01T01:43:29.557Z,54.58
2022-10-01T01:46:07.469Z,52.08
2022-10-01T01:48:44.507Z,53.33
2022-10-01T01:51:26.358Z,55.28
2022-10-01T01:54:00.686Z,49.05
2022-10-01T01:56:35.969Z,47.53
2022-10-01T01:59:09.929Z,52.33
2022-10-01T02:01:46.004Z,49.35
2022-10-01T02:04:25.493Z,53.50
2022-10-01T02:07:15.388Z,49.55
2022-10-01T02:09:54.423Z,48.72
2022-10-01T02:12:39.203Z,57.83
2022-10-01T02:15:25.946Z,50.25
2022-10-01T02:18:07.767Z,49.90
2022-10-01T02:20:47.343Z,52.05
2022-10-01T02:23:26.793Z,51.72
2022-10-01T02:26:08.119Z,52.92
2022-10-01T02:28:44.002Z,50.13
2022-10-01T02:31:20.060Z,55.05
2022-10-01T02:33:57.845Z,50.13
2022-10-01T02:36:35.276Z,57.55
2022-10-01T02:39:10.463Z,59.90
2022-10-01T02:41:48.129Z,52.65
2022-10-01T02:44:27.074Z,56.90
2022-10-01T02:47:07.927Z,55.80
2022-10-01T02:49:43.078Z,55.70
2022-10-01T02:52:25.918Z,56.65
2022-10-01T02:55:05.284Z,55.72
2022-10-01T02:57:39.336Z,56.38
2022-10-01T03:00:16.074Z,55.85
2022-10-01T03:02:50.328Z,55.10
2022-10-01T03:05:25.587Z,56.60
2022-10-01T03:07:59.200Z,60.78
2022-10-01T03:10:32.752Z,55.55
2022-10-01T03:13:07.528Z,56.45
2022-10-01T03:15:41.141Z,58.03
2022-10-01T03:18:14.680Z,59.38
2022-10-01T03:20:50.898Z,55.55
2022-10-01T03:23:24.389Z,59.25
2022-10-01T03:25:57.944Z,58.33
2022-10-01T03:28:31.553Z,53.80
2022-10-01T03:31:09.371Z,50.55
2022-10-01T03:33:42.917Z,49.10
2022-10-01T03:36:18.085Z,46.50
2022-10-01T03:38:51.607Z,50.30
2022-10-01T03:41:25.171Z,51.35
2022-10-01T03:44:00.608Z,54.80
2022-10-01T03:46:34.383Z,45.17
2022-10-01T03:49:07.983Z,46.78
2022-10-01T03:51:43.058Z,48.88
2022-10-01T03:54:16.665Z,49.85
2022-10-01T03:56:50.279Z,52.78
2022-10-01T03:59:23.835Z,53.08
2022-10-01T04:01:57.476Z,54.78
2022-10-01T04:07:05.775Z,55.40
2022-10-01T04:09:39.300Z,54.22
2022-10-01T04:12:12.808Z,57.13
2022-10-01T04:14:46.330Z,52.47
2022-10-01T04:17:20.629Z,55.83
2022-10-01T04:19:54.455Z,51.30
2022-10-01T04:25:02.902Z,51.83
2022-10-01T04:30:11.455Z,57.73
2022-10-01T04:32:45.226Z,50.70
2022-10-01T04:35:18.989Z,62.30
2022-10-01T04:40:32.847Z,54.95
2022-10-01T04:43:08.550Z,47.03
2022-10-01T04:45:42.281Z,50.63
2022-10-01T04:48:15.833Z,57.40
2022-10-01T04:50:49.404Z,53.47
2022-10-01T04:53:24.379Z,55.25
2022-10-01T04:55:57.981Z,54.40
2022-10-01T05:01:05.544Z,55.75
2022-10-01T05:03:39.197Z,64.07
2022-10-01T05:06:12.813Z,54.80
2022-10-01T05:08:49.008Z,57.28
2022-10-01T05:11:22.543Z,55.70
2022-10-01T05:13:56.260Z,59.13
2022-10-01T05:16:29.937Z,62.45
2022-10-01T05:19:03.590Z,63.72
2022-10-01T05:21:38.561Z,61.45
2022-10-01T05:24:13.532Z,55.22
2022-10-01T05:26:47.117Z,65.97
2022-10-01T05:29:20.672Z,60.05
2022-10-01T05:31:54.409Z,52.67
2022-10-01T05:34:27.993Z,51.80
2022-10-01T05:37:02.956Z,48.88
2022-10-01T05:39:37.998Z,53.60
2022-10-01T05:42:11.544Z,55.97
2022-10-01T05:44:50.149Z,49.38
2022-10-01T05:47:23.702Z,48.83
2022-10-01T05:49:57.186Z,53.17
2022-10-01T05:52:30.673Z,49.08
2022-10-01T05:55:06.464Z,44.75
2022-10-01T05:57:40.141Z,50.85
2022-10-01T06:00:14.971Z,52.78
2022-10-01T06:02:52.253Z,45.50
2022-10-01T06:05:26.896Z,43.60
2022-10-01T06:08:00.951Z,47.95
2022-10-01T06:10:37.035Z,48.78
2022-10-01T06:13:10.719Z,66.60
2022-10-01T06:15:44.806Z,62.90
2022-10-01T06:18:18.374Z,66.18
2022-10-01T06:20:51.925Z,58.13
2022-10-01T06:23:25.376Z,65.40
2022-10-01T06:26:01.648Z,65.55
2022-10-01T06:28:37.946Z,63.42
2022-10-01T06:31:14.361Z,62.72
2022-10-01T06:33:47.953Z,61.08
2022-10-01T06:36:21.511Z,71.10
2022-10-01T06:38:55.026Z,44.20
2022-10-01T06:41:30.029Z,45.38
2022-10-01T06:44:03.570Z,47.17
2022-10-01T06:46:37.519Z,47.75
2022-10-01T06:49:11.157Z,38.17
2022-10-01T06:54:35.548Z,36.92
2022-10-01T06:57:10.800Z,37.47
2022-10-01T06:59:44.312Z,37.70
2022-10-01T07:02:29.032Z,34.47
2022-10-01T07:05:02.683Z,41.90
2022-10-01T07:07:39.366Z,33.78
2022-10-01T07:10:13.830Z,27.60
2022-10-01T07:12:50.330Z,27.63
2022-10-01T07:15:24.174Z,25.52
2022-10-01T07:17:57.656Z,22.65
2022-10-01T07:20:35.594Z,25.63
2022-10-01T07:23:12.089Z,36.50
2022-10-01T07:25:45.992Z,15.00
2022-10-01T07:28:24.181Z,15.88
2022-10-01T07:31:02.845Z,16.13
2022-10-01T07:33:36.446Z,19.58
2022-10-01T07:36:12.556Z,22.67
2022-10-01T07:38:51.061Z,20.50
2022-10-01T07:41:26.485Z,19.33
2022-10-01T07:44:03.610Z,23.48
2022-10-01T07:46:37.131Z,24.77
2022-10-01T07:49:11.329Z,28.48
2022-10-01T07:51:44.820Z,28.48
2022-10-01T07:54:19.191Z,38.33
2022-10-01T07:56:56.004Z,23.25
2022-10-01T07:59:31.516Z,24.55
2022-10-01T08:02:05.051Z,29.70
2022-10-01T08:04:55.942Z,24.58
2022-10-01T08:07:29.610Z,21.83
2022-10-01T08:10:04.531Z,19.67
2022-10-01T08:12:38.285Z,16.42
2022-10-01T08:17:47.272Z,16.90
2022-10-01T08:20:21.660Z,18.15
2022-10-01T08:22:55.195Z,25.88
2022-10-01T08:28:02.647Z,15.57
2022-10-01T08:30:38.679Z,14.55
2022-10-01T08:33:14.463Z,14.43
2022-10-01T08:35:48.221Z,17.02
2022-10-01T08:38:21.804Z,14.68
2022-10-01T08:40:58.783Z,14.25
2022-10-01T08:43:36.568Z,13.98
2022-10-01T08:46:18.278Z,13.63
2022-10-01T08:49:02.899Z,26.67
2022-10-01T08:51:41.140Z,16.70
2022-10-01T08:54:24.988Z,16.02
2022-10-01T08:57:01.890Z,17.20
2022-10-01T08:59:42.150Z,14.20
2022-10-01T09:02:26.149Z,14.88
2022-10-01T09:05:02.976Z,12.55
2022-10-01T09:07:51.194Z,10.05
2022-10-01T09:10:37.061Z,10.38
2022-10-01T09:13:50.079Z,12.05
2022-10-01T09:16:31.796Z,9.57
2022-10-01T09:19:19.833Z,6.95
2022-10-01T09:21:59.666Z,6.55
2022-10-01T09:24:44.573Z,7.57
2022-10-01T09:27:20.086Z,8.00
2022-10-01T09:29:57.721Z,6.95
2022-10-01T09:32:38.216Z,6.75
2022-10-01T09:35:25.134Z,7.90
2022-10-01T09:38:04.615Z,6.95
2022-10-01T09:40:47.773Z,8.75
2022-10-01T09:45:58.802Z,7.57
2022-10-01T09:48:45.766Z,6.90
2022-10-01T09:51:27.934Z,8.05
2022-10-01T09:54:07.758Z,9.80
2022-10-01T09:56:49.099Z,9.05
2022-10-01T09:59:28.435Z,13.30
2022-10-01T10:02:06.284Z,11.13
2022-10-01T10:04:39.929Z,10.90
2022-10-01T10:07:20.511Z,9.23
2022-10-01T10:09:54.624Z,9.63
2022-10-01T10:12:31.102Z,9.50
2022-10-01T10:15:09.962Z,9.02
2022-10-01T10:17:46.419Z,8.35
2022-10-01T10:20:26.836Z,9.85
2022-10-01T10:23:17.349Z,10.45
2022-10-01T10:25:57.005Z,12.48
2022-10-01T10:28:43.618Z,9.20
2022-10-01T10:31:20.665Z,9.60
2022-10-01T10:33:58.035Z,8.55
2022-10-01T10:36:34.276Z,10.52
2022-10-01T10:39:21.652Z,8.38
2022-10-01T10:41:56.842Z,9.48
2022-10-01T10:44:36.375Z,8.63
2022-10-01T10:47:15.027Z,10.10
2022-10-01T10:49:52.596Z,10.38
2022-10-01T10:52:30.471Z,9.07
2022-10-01T10:55:24.161Z,9.80
2022-10-01T10:58:08.938Z,9.40
2022-10-01T11:00:48.543Z,9.18
2022-10-01T11:03:25.225Z,8.30
2022-10-01T11:06:04.794Z,8.05
2022-10-01T11:08:39.552Z,8.63
2022-10-01T11:11:32.495Z,7.25
2022-10-01T11:14:23.659Z,7.45
2022-10-01T11:17:27.793Z,9.97
2022-10-01T11:20:20.830Z,9.07
2022-10-01T11:23:04.510Z,11.18
2022-10-01T11:25:46.726Z,10.10
2022-10-01T11:28:38.658Z,7.10
2022-10-01T11:31:25.050Z,8.98
2022-10-01T11:34:13.944Z,7.03
2022-10-01T11:36:59.522Z,10.35
2022-10-01T11:39:36.437Z,8.98
2022-10-01T11:42:14.706Z,7.43
2022-10-01T11:45:00.647Z,8.98
2022-10-01T11:47:39.412Z,7.40
2022-10-01T11:50:18.745Z,7.55
2022-10-01T11:52:58.577Z,9.52
2022-10-01T11:55:55.062Z,7.53
2022-10-01T11:58:50.527Z,7.05
2022-10-01T12:01:34.149Z,8.63
2022-10-01T12:04:19.706Z,8.68
2022-10-01T12:06:59.461Z,8.43
2022-10-01T12:09:40.707Z,9.10
2022-10-01T12:12:19.471Z,10.38
2022-10-01T12:15:06.496Z,9.18
2022-10-01T12:17:46.630Z,8.57
2022-10-01T12:20:26.669Z,8.88
2022-10-01T12:23:02.252Z,10.57
2022-10-01T12:25:44.675Z,9.73
2022-10-01T12:28:26.065Z,11.13
2022-10-01T12:31:05.863Z,8.60
2022-10-01T12:34:04.730Z,11.77
2022-10-01T12:36:49.288Z,12.38
2022-10-01T12:39:40.561Z,14.05
2022-10-01T12:42:43.920Z,15.07
2022-10-01T12:45:29.397Z,13.77
2022-10-01T12:48:16.900Z,15.73
2022-10-01T12:51:00.592Z,14.30
2022-10-01T12:53:40.477Z,16.48
2022-10-01T12:56:23.179Z,15.32
2022-10-01T12:59:17.201Z,17.35
2022-10-01T13:02:02.960Z,15.32
2022-10-01T13:04:56.865Z,16.70
2022-10-01T13:07:51.271Z,17.27
2022-10-01T13:10:50.090Z,20.98
2022-10-01T13:13:37.559Z,17.92
2022-10-01T13:16:22.389Z,19.63
2022-10-01T13:19:04.931Z,19.13
2022-10-01T13:22:02.245Z,18.48
2022-10-01T13:24:45.002Z,21.35
2022-10-01T13:27:28.738Z,20.83
2022-10-01T13:32:53.796Z,19.63
2022-10-01T13:35:35.173Z,20.48
2022-10-01T13:38:17.279Z,20.23
2022-10-01T13:41:01.493Z,18.73
2022-10-01T13:43:36.803Z,17.95
2022-10-01T13:46:12.329Z,22.67
2022-10-01T13:48:49.920Z,21.55
2022-10-01T13:51:23.495Z,20.83
2022-10-01T13:56:38.230Z,21.38
2022-10-01T13:59:30.644Z,21.77
2022-10-01T14:02:24.190Z,19.02
2022-10-01T14:05:04.967Z,18.48
2022-10-01T14:07:41.134Z,21.25
2022-10-01T14:10:16.957Z,20.30
2022-10-01T14:13:10.605Z,20.80
2022-10-01T14:16:00.524Z,19.88
2022-10-01T14:18:40.804Z,17.42
2022-10-01T14:21:35.609Z,19.60
2022-10-01T14:24:26.079Z,17.23
2022-10-01T14:27:05.355Z,19.67
2022-10-01T14:29:53.157Z,20.15
2022-10-01T14:32:40.067Z,16.80
2022-10-01T14:35:29.613Z,22.33
2022-10-01T14:38:08.912Z,17.83
2022-10-01T14:40:45.356Z,16.17
2022-10-01T14:43:21.502Z,17.10
2022-10-01T14:46:01.012Z,19.00
2022-10-01T14:48:37.988Z,21.27
2022-10-01T14:51:24.989Z,20.00
2022-10-01T14:54:01.467Z,17.20
2022-10-01T14:56:36.289Z,19.90
2022-10-01T14:59:32.462Z,21.92
2022-10-01T15:02:21.814Z,21.10
2022-10-01T15:05:10.107Z,24.90
2022-10-01T15:07:50.717Z,24.42
2022-10-01T15:10:43.348Z,22.58
2022-10-01T15:13:29.500Z,23.17
2022-10-01T15:16:04.347Z,22.50
2022-10-01T15:18:43.093Z,25.77
2022-10-01T15:21:21.387Z,25.63
2022-10-01T15:23:58.705Z,22.17
2022-10-01T15:26:33.788Z,27.50
2022-10-01T15:29:13.448Z,22.45
2022-10-01T15:31:49.102Z,24.45
2022-10-01T15:34:26.693Z,25.95
2022-10-01T15:37:01.740Z,29.50
2022-10-01T15:39:39.215Z,21.63
2022-10-01T15:42:25.910Z,21.45
2022-10-01T15:45:26.048Z,21.50
2022-10-01T15:47:59.499Z,21.52
2022-10-01T15:50:36.843Z,22.42
2022-10-01T15:53:19.737Z,21.20
2022-10-01T15:55:57.228Z,22.70
2022-10-01T15:58:35.211Z,21.67
2022-10-01T16:01:10.935Z,23.40
2022-10-01T16:03:52.601Z,26.13
2022-10-01T16:06:30.316Z,21.58
2022-10-01T16:09:08.613Z,25.20
2022-10-01T16:12:00.737Z,27.38
2022-10-01T16:14:39.478Z,23.23
2022-10-01T16:17:35.845Z,26.40
2022-10-01T16:20:35.707Z,27.65
2022-10-01T16:23:39.637Z,28.02
2022-10-01T16:26:49.558Z,28.58
2022-10-01T16:29:29.970Z,25.33
2022-10-01T16:32:03.958Z,29.88
2022-10-01T16:34:37.557Z,34.22
2022-10-01T16:37:11.139Z,32.35
2022-10-01T16:39:46.182Z,26.17
2022-10-01T16:42:24.726Z,26.85
2022-10-01T16:44:58.325Z,26.98
2022-10-01T16:47:31.898Z,33.13
2022-10-01T16:50:17.541Z,32.45
2022-10-01T16:52:54.402Z,25.98
2022-10-01T16:55:36.006Z,29.88
2022-10-01T16:58:09.656Z,31.23
2022-10-01T17:03:18.565Z,33.97
2022-10-01T17:05:52.075Z,31.67
2022-10-01T17:08:25.529Z,33.90
2022-10-01T17:11:03.355Z,33.80
2022-10-01T17:13:36.835Z,32.85
2022-10-01T17:16:15.196Z,32.05
2022-10-01T17:18:48.761Z,32.10
2022-10-01T17:21:22.328Z,30.58
2022-10-01T17:23:56.033Z,34.33
2022-10-01T17:29:04.197Z,37.50
2022-10-01T17:31:40.878Z,35.38
2022-10-01T17:34:14.415Z,35.30
2022-10-01T17:36:47.829Z,36.08
2022-10-01T17:39:21.262Z,30.77
2022-10-01T17:41:56.136Z,35.60
2022-10-01T17:44:29.590Z,33.05
2022-10-01T17:47:03.142Z,34.78
2022-10-01T17:49:36.648Z,33.55
2022-10-01T17:52:10.557Z,38.30
2022-10-01T17:54:44.184Z,37.63
2022-10-01T17:57:19.388Z,38.47
2022-10-01T17:59:53.147Z,40.53
2022-10-01T18:02:43.163Z,38.45
2022-10-01T18:05:17.450Z,44.45
2022-10-01T18:07:51.077Z,43.20
2022-10-01T18:10:24.658Z,34.35
2022-10-01T18:13:00.151Z,41.55
2022-10-01T18:15:33.864Z,45.08
2022-10-01T18:19:24.323Z,37.33
2022-10-01T18:21:07.151Z,38.35
2022-10-01T18:23:41.015Z,36.63
2022-10-01T18:26:15.671Z,40.35
2022-10-01T18:28:51.686Z,40.17
2022-10-01T18:31:27.540Z,35.70
2022-10-01T18:34:02.775Z,43.40
2022-10-01T18:36:43.649Z,48.35
2022-10-01T18:39:22.362Z,40.63
2022-10-01T18:41:55.990Z,42.75
2022-10-01T18:44:30.896Z,42.67
2022-10-01T18:47:19.413Z,39.53
2022-10-01T18:50:08.396Z,43.95
2022-10-01T18:52:56.210Z,44.47
2022-10-01T18:56:04.113Z,44.78
2022-10-01T18:58:53.953Z,62.33
2022-10-01T19:01:39.995Z,44.67
2022-10-01T19:04:29.027Z,43.17
2022-10-01T19:07:16.891Z,44.75
2022-10-01T19:10:00.560Z,45.55
2022-10-01T19:12:48.012Z,51.75
2022-10-01T19:15:35.086Z,47.03
2022-10-01T19:18:29.774Z,50.72
2022-10-01T19:21:16.137Z,45.95
2022-10-01T19:24:30.151Z,54.75
2022-10-01T19:27:13.739Z,48.87
2022-10-01T19:30:02.481Z,47.78
2022-10-01T19:32:43.515Z,51.10
2022-10-01T19:35:23.116Z,55.42
2022-10-01T19:38:02.626Z,51.53
2022-10-01T19:40:40.770Z,46.90
2022-10-01T19:43:22.911Z,48.40
2022-10-01T19:46:00.841Z,55.13
2022-10-01T19:48:45.492Z,51.45
2022-10-01T19:51:24.698Z,49.38
2022-10-01T19:54:01.323Z,56.92
2022-10-01T19:56:38.493Z,52.42
2022-10-01T19:59:14.611Z,60.03
2022-10-01T20:01:53.470Z,70.10
2022-10-01T20:04:34.452Z,51.72
2022-10-01T20:07:13.461Z,26.70
2022-10-01T20:09:51.944Z,16.63
2022-10-01T20:12:32.531Z,15.02
2022-10-01T20:15:21.908Z,14.93
2022-10-01T20:18:03.980Z,12.00
2022-10-01T20:20:43.704Z,12.00
2022-10-01T20:23:35.573Z,7.53
2022-10-01T20:26:17.052Z,12.85
2022-10-01T20:29:16.000Z,9.20
2022-10-01T20:31:59.047Z,8.52
2022-10-01T20:34:41.139Z,11.43
2022-10-01T20:37:35.170Z,10.90
2022-10-01T20:40:26.174Z,11.70
2022-10-01T20:43:07.330Z,10.52
2022-10-01T20:45:42.155Z,10.98
2022-10-01T20:48:20.609Z,10.43
2022-10-01T20:50:55.765Z,10.73
2022-10-01T20:53:38.980Z,9.52
2022-10-01T20:56:17.467Z,7.50
2022-10-01T20:58:57.555Z,10.13
2022-10-01T21:01:37.412Z,11.20
2022-10-01T21:04:19.649Z,10.45
2022-10-01T21:06:57.500Z,8.13
2022-10-01T21:09:42.744Z,7.50
2022-10-01T21:12:23.605Z,9.95
2022-10-01T21:14:58.129Z,9.35
2022-10-01T21:17:41.315Z,11.90
2022-10-01T21:20:50.102Z,10.05
2022-10-01T21:23:40.954Z,10.15
2022-10-01T21:26:25.586Z,7.43
2022-10-01T21:29:19.452Z,10.75
2022-10-01T21:32:05.038Z,9.90
2022-10-01T21:34:48.785Z,12.57
2022-10-01T21:37:31.189Z,11.38
2022-10-01T21:40:17.195Z,12.85
2022-10-01T21:42:57.316Z,12.60
2022-10-01T21:45:43.190Z,13.13
2022-10-01T21:48:27.155Z,11.68
2022-10-01T21:51:06.944Z,15.43
2022-10-01T21:53:58.533Z,13.98
2022-10-01T21:57:03.019Z,15.55
2022-10-01T21:59:51.064Z,9.55
2022-10-01T22:02:35.684Z,12.80
2022-10-01T22:05:23.566Z,9.95
2022-10-01T22:08:06.579Z,8.57
2022-10-01T22:10:43.748Z,6.75
2022-10-01T22:13:21.562Z,8.68
2022-10-01T22:15:59.473Z,10.10
2022-10-01T22:18:38.629Z,7.10
2022-10-01T22:21:15.166Z,8.18
2022-10-01T22:23:58.911Z,9.50
2022-10-01T22:26:36.301Z,7.45
2022-10-01T22:29:16.059Z,9.30
2022-10-01T22:31:53.146Z,8.07
2022-10-01T22:34:33.618Z,8.85
2022-10-01T22:37:12.894Z,8.27
2022-10-01T22:39:51.538Z,8.82
2022-10-01T22:42:30.530Z,9.05
2022-10-01T22:45:13.613Z,9.10
2022-10-01T22:48:00.820Z,6.65
2022-10-01T22:50:48.988Z,7.43
2022-10-01T22:53:42.861Z,7.60
2022-10-01T22:56:23.634Z,10.10
2022-10-01T22:59:12.466Z,10.25
2022-10-01T23:01:53.609Z,6.75
2022-10-01T23:04:36.767Z,8.07
2022-10-01T23:07:21.664Z,9.40
2022-10-01T23:10:03.493Z,10.63
2022-10-01T23:12:47.479Z,9.65
2022-10-01T23:18:11.175Z,7.45
2022-10-01T23:20:54.281Z,8.50
2022-10-01T23:23:32.789Z,8.27
2022-10-01T23:26:29.653Z,9.18
2022-10-01T23:29:17.498Z,7.88
2022-10-01T23:32:01.609Z,9.23
2022-10-01T23:34:45.813Z,10.70
2022-10-01T23:40:07.981Z,10.77
2022-10-01T23:42:50.812Z,14.07
2022-10-01T23:45:29.867Z,11.43
2022-10-01T23:48:09.399Z,10.55
2022-10-01T23:50:47.445Z,10.10
2022-10-01T23:53:24.277Z,10.23
2022-10-01T23:56:22.690Z,9.15
2022-10-01T23:59:03.168Z,10.68
